Time;durP1;ratioP1;P1;durP2;ratioP2;P2;SDS_P1;SDS_P2;PMS_P1;PMS_P2;Temp;Humidity;BMP_temperature;BMP_pressure;BME280_temperature;BME280_humidity;BME280_pressure;Samples;Min_cycle;Max_cycle;Signal;HPM_P1;HPM_P2
2022/10/29 00:00:54;;;;;;;12.20;9.33;;;;;;;11.15;77.09;101959.09;1860329;77;21459;-83
2022/10/29 00:03:20;;;;;;;;;;;;;;;11.16;76.19;101957.73;1863217;77;20860;-83
2022/10/29 00:06:01;;;;;;;21.15;10.25;;;;;;;11.16;75.99;101952.48;1859214;76;21125;-85
2022/10/29 00:08:30;;;;;;;12.47;9.95;;;;;;;11.15;76.04;101951.22;1849118;77;20988;-84
2022/10/29 00:11:10;;;;;;;13.40;9.05;;;;;;;11.12;76.02;101951.36;1849386;77;20885;-85
2022/10/29 00:13:39;;;;;;;14.45;9.15;;;;;;;11.08;76.27;101951.08;1849466;76;21020;-86
2022/10/29 00:16:10;;;;;;;18.65;9.70;;;;;;;11.03;76.47;101945.14;1849437;77;20913;-85
2022/10/29 00:18:37;;;;;;;13.20;8.73;;;;;;;11.00;76.51;101947.44;1849473;76;21799;-85
2022/10/29 00:21:06;;;;;;;11.60;8.75;;;;;;;10.98;76.75;101948.83;1849503;77;20854;-85
2022/10/29 00:23:34;;;;;;;17.57;9.05;;;;;;;10.97;76.81;101939.70;1849390;77;21415;-85
2022/10/29 00:26:01;;;;;;;12.25;7.85;;;;;;;10.99;76.82;101942.65;1849272;77;21412;-84
2022/10/29 00:28:28;;;;;;;10.98;7.08;;;;;;;11.00;76.61;101940.88;1849495;77;20941;-85
2022/10/29 00:30:54;;;;;;;8.63;6.47;;;;;;;11.05;75.94;101940.25;1849485;77;21276;-86
2022/10/29 00:33:21;;;;;;;9.58;6.12;;;;;;;11.09;75.11;101940.96;1849286;77;20857;-85
2022/10/29 00:36:04;;;;;;;7.45;5.65;;;;;;;11.12;74.44;101946.95;1849365;77;20913;-84
2022/10/29 00:38:32;;;;;;;7.40;5.65;;;;;;;11.13;73.97;101936.83;1849727;77;20952;-86
2022/10/29 00:40:58;;;;;;;8.43;5.22;;;;;;;11.13;73.40;101931.58;1849448;76;20818;-85
2022/10/29 00:43:25;;;;;;;6.53;5.40;;;;;;;11.12;73.04;101938.23;1849696;77;21202;-84
2022/10/29 00:46:04;;;;;;;8.78;6.75;;;;;;;11.09;72.76;101938.34;1849478;77;21079;-83
2022/10/29 00:48:34;;;;;;;11.68;6.75;;;;;;;11.06;73.23;101936.70;1849244;76;20900;-85
2022/10/29 00:51:03;;;;;;;6.95;4.42;;;;;;;11.02;73.83;101936.88;1849551;77;21355;-83
2022/10/29 00:53:33;;;;;;;4.85;4.10;;;;;;;10.98;74.10;101940.08;1849469;76;20877;-83
2022/10/29 00:56:00;;;;;;;5.37;3.62;;;;;;;10.95;73.74;101933.66;1849321;77;21170;-85
2022/10/29 00:58:26;;;;;;;5.28;3.47;;;;;;;10.94;73.46;101935.43;1849394;77;20905;-85
2022/10/29 01:00:54;;;;;;;6.97;4.20;;;;;;;10.96;73.26;101940.16;1849510;77;20846;-86
2022/10/29 01:03:24;;;;;;;8.28;3.95;;;;;;;10.97;73.07;101937.08;1823940;77;20913;-85
2022/10/29 01:05:51;;;;;;;5.95;4.80;;;;;;;10.99;72.95;101934.77;1849335;77;20913;-85
2022/10/29 01:08:18;;;;;;;5.83;4.30;;;;;;;11.02;72.71;101936.41;1820234;78;22165;-84
2022/10/29 01:11:12;;;;;;;6.97;4.75;;;;;;;11.03;72.73;101932.02;1819951;78;20908;-84
2022/10/29 01:13:53;;;;;;;5.83;4.78;;;;;;;11.02;72.99;101935.57;1820036;78;21293;-85
2022/10/29 01:16:43;;;;;;;10.08;5.03;;;;;;;11.00;72.75;101935.63;1820019;78;20911;-84
2022/10/29 01:19:27;;;;;;;5.85;4.47;;;;;;;10.98;72.74;101928.27;1820335;77;21337;-84
2022/10/29 01:22:36;;;;;;;4.40;3.95;;;;;;;10.97;73.07;101926.11;1820143;78;21123;-84
2022/10/29 01:25:14;;;;;;;5.17;4.40;;;;;;;10.97;73.18;101926.57;1758798;78;21582;-84
2022/10/29 01:28:29;;;;;;;4.42;3.87;;;;;;;10.97;74.14;101922.17;1792153;80;20894;-85
2022/10/29 01:31:04;;;;;;;6.80;3.92;;;;;;;10.95;74.46;101913.97;1792686;78;21392;-84
2022/10/29 01:33:48;;;;;;;4.10;3.72;;;;;;;10.94;74.36;101913.59;1792127;78;20890;-84
2022/10/29 01:36:29;;;;;;;4.78;4.22;;;;;;;10.94;74.49;101915.75;1792409;78;21179;-84
2022/10/29 01:39:41;;;;;;;6.30;4.40;;;;;;;10.95;74.75;101908.72;1792519;78;20974;-84
2022/10/29 01:42:19;;;;;;;5.40;3.70;;;;;;;10.92;74.67;101899.20;1792720;78;21431;-84
2022/10/29 01:45:11;;;;;;;3.52;3.22;;;;;;;10.92;74.14;101895.73;1792980;80;21479;-83
2022/10/29 01:47:56;;;;;;;3.60;3.08;;;;;;;10.90;73.44;101893.63;1795186;76;20977;-83
2022/10/29 01:50:23;;;;;;;3.30;3.00;;;;;;;10.85;73.02;101895.56;1795583;76;21212;-84
2022/10/29 01:52:50;;;;;;;5.75;3.52;;;;;;;10.81;72.80;101887.45;1794931;76;20878;-83
2022/10/29 01:55:18;;;;;;;5.33;3.75;;;;;;;10.74;72.78;101881.13;1795652;76;21224;-84
2022/10/29 01:57:45;;;;;;;4.75;3.77;;;;;;;10.70;72.87;101882.62;1793908;78;21281;-83
2022/10/29 02:00:18;;;;;;;14.13;11.40;;;;;;;10.65;73.06;101884.55;1817786;78;20982;-84
2022/10/29 02:03:30;;;;;;;7.70;5.67;;;;;;;10.62;73.26;101882.91;1820301;77;21232;-84
2022/10/29 02:06:32;;;;;;;3.47;3.17;;;;;;;10.60;73.29;101878.65;1819833;78;22405;-85
2022/10/29 02:09:10;;;;;;;3.98;3.42;;;;;;;10.57;73.33;101873.92;1860580;77;21354;-82
2022/10/29 02:12:01;;;;;;;4.40;3.25;;;;;;;10.54;73.26;101879.77;1860800;77;20944;-83
2022/10/29 02:14:32;;;;;;;4.53;3.90;;;;;;;10.51;73.25;101872.84;1861289;77;20849;-84
2022/10/29 02:17:00;;;;;;;4.62;3.37;;;;;;;10.50;73.20;101872.93;1860826;77;21806;-85
2022/10/29 02:19:32;;;;;;;3.45;2.60;;;;;;;10.45;73.19;101865.67;1860650;77;20904;-85
2022/10/29 02:21:59;;;;;;;3.00;2.45;;;;;;;10.42;73.22;101866.66;1860680;77;20838;-84
2022/10/29 02:24:26;;;;;;;2.85;2.65;;;;;;;10.39;73.30;101866.79;1860513;76;20936;-83
2022/10/29 02:26:52;;;;;;;5.62;2.70;;;;;;;10.37;73.42;101876.02;1860704;77;20908;-82
2022/10/29 02:29:19;;;;;;;3.65;2.58;;;;;;;10.36;73.58;101870.85;1860650;77;21211;-83
2022/10/29 02:31:47;;;;;;;4.97;2.50;;;;;;;10.35;73.97;101866.04;1860627;77;21378;-84
2022/10/29 02:34:14;;;;;;;3.62;2.92;;;;;;;10.36;74.39;101873.48;1860467;77;20987;-85
2022/10/29 02:36:42;;;;;;;3.20;2.80;;;;;;;10.35;74.75;101866.50;1860555;77;20885;-84
2022/10/29 02:39:08;;;;;;;4.12;2.50;;;;;;;10.35;75.06;101871.28;1860630;77;21339;-84
2022/10/29 02:41:36;;;;;;;6.08;3.00;;;;;;;10.36;75.42;101868.23;1860515;77;21169;-83
2022/10/29 02:44:03;;;;;;;4.53;3.05;;;;;;;10.38;75.54;101861.13;1860682;77;21548;-85
2022/10/29 02:46:34;;;;;;;3.12;2.83;;;;;;;10.39;75.40;101851.52;1860716;77;21445;-84
2022/10/29 02:49:00;;;;;;;3.60;2.40;;;;;;;10.40;75.17;101861.08;1861556;77;20845;-85
2022/10/29 02:51:27;;;;;;;3.62;3.22;;;;;;;10.37;75.28;101862.05;1861265;77;20924;-83
2022/10/29 02:53:55;;;;;;;5.03;3.60;;;;;;;10.31;75.33;101861.83;1861070;77;21118;-83
2022/10/29 02:56:22;;;;;;;3.65;3.17;;;;;;;10.26;75.49;101858.97;1860444;76;21292;-83
2022/10/29 02:58:49;;;;;;;3.12;2.83;;;;;;;10.21;75.44;101856.99;1860516;77;20916;-83
2022/10/29 03:01:15;;;;;;;3.92;3.02;;;;;;;10.15;75.62;101856.75;1860430;76;21441;-84
2022/10/29 03:03:43;;;;;;;4.05;2.87;;;;;;;10.13;75.66;101855.95;1860501;77;20869;-84
2022/10/29 03:06:16;;;;;;;3.47;3.05;;;;;;;10.12;75.60;101852.95;1860530;76;21277;-84
2022/10/29 03:08:46;;;;;;;6.17;3.10;;;;;;;10.12;75.73;101855.11;1859401;77;21345;-85
2022/10/29 03:11:12;;;;;;;3.60;2.60;;;;;;;10.14;75.79;101853.75;1860484;77;21396;-84
2022/10/29 03:13:39;;;;;;;2.85;2.55;;;;;;;10.15;75.93;101860.69;1860215;77;20860;-84
2022/10/29 03:16:08;;;;;;;3.58;3.17;;;;;;;10.13;75.85;101859.42;1860208;76;20946;-83
2022/10/29 03:18:34;;;;;;;5.22;3.00;;;;;;;10.13;75.77;101863.82;1860297;76;21190;-83
2022/10/29 03:21:03;;;;;;;3.90;2.75;;;;;;;10.11;75.82;101856.00;1860145;76;20918;-84
2022/10/29 03:23:30;;;;;;;3.60;3.25;;;;;;;10.08;75.82;101848.73;1860364;77;20836;-84
2022/10/29 03:25:56;;;;;;;4.62;2.83;;;;;;;10.05;75.91;101840.97;1860158;77;20927;-83
2022/10/29 03:28:24;;;;;;;3.98;3.50;;;;;;;10.00;76.03;101835.91;1860188;77;20832;-83
2022/10/29 03:30:51;;;;;;;3.45;2.80;;;;;;;9.95;76.12;101842.63;1860138;76;22055;-84
2022/10/29 03:33:19;;;;;;;3.58;2.75;;;;;;;9.92;76.37;101841.91;1860127;77;21463;-84
2022/10/29 03:35:46;;;;;;;3.50;3.05;;;;;;;9.90;76.55;101835.88;1860252;77;21404;-83
2022/10/29 03:38:12;;;;;;;4.97;2.80;;;;;;;9.88;76.76;101829.38;1860182;76;20851;-84
2022/10/29 03:40:39;;;;;;;3.70;2.70;;;;;;;9.88;76.85;101829.38;1860365;77;20978;-84
2022/10/29 03:43:07;;;;;;;4.10;3.10;;;;;;;9.85;77.02;101829.94;1860299;77;20955;-83
2022/10/29 03:45:34;;;;;;;4.20;3.20;;;;;;;9.82;77.14;101820.42;1860112;77;21020;-83
2022/10/29 03:48:04;;;;;;;3.80;3.45;;;;;;;9.80;77.28;101808.30;1860238;77;20891;-84
2022/10/29 03:50:30;;;;;;;6.20;3.52;;;;;;;9.78;77.23;101812.74;1860352;76;20911;-83
2022/10/29 03:52:57;;;;;;;6.67;3.62;;;;;;;9.78;77.19;101828.45;1860361;77;20971;-84
2022/10/29 03:55:23;;;;;;;3.70;3.40;;;;;;;9.78;77.36;101823.22;1860444;77;21825;-83
2022/10/29 03:57:51;;;;;;;4.42;2.83;;;;;;;9.80;77.61;101814.85;1860317;77;20898;-84
2022/10/29 04:00:19;;;;;;;5.35;3.92;;;;;;;9.81;77.50;101804.79;1860464;76;20835;-84
2022/10/29 04:02:46;;;;;;;6.47;4.00;;;;;;;9.80;77.39;101806.52;1863518;77;20927;-83
2022/10/29 04:05:13;;;;;;;4.17;3.77;;;;;;;9.78;77.35;101805.73;1863446;77;20923;-84
2022/10/29 04:07:39;;;;;;;5.15;4.65;;;;;;;9.77;77.34;101798.80;1859857;77;21183;-83
2022/10/29 04:10:07;;;;;;;6.70;4.53;;;;;;;9.76;77.42;101798.41;1852579;77;20905;-82
2022/10/29 04:12:34;;;;;;;4.50;4.10;;;;;;;9.72;77.44;101804.21;1852275;77;20901;-83
2022/10/29 04:15:01;;;;;;;6.65;4.70;;;;;;;9.67;77.54;101795.68;1852437;77;20846;-83
2022/10/29 04:17:27;;;;;;;10.08;5.55;;;;;;;9.60;77.93;101794.64;1852430;77;20933;-83
2022/10/29 04:19:54;;;;;;;6.90;6.10;;;;;;;9.52;78.37;101793.16;1852327;76;21112;-82
2022/10/29 04:22:20;;;;;;;8.30;5.67;;;;;;;9.49;78.80;101798.52;1852228;77;20877;-83
2022/10/29 04:24:47;;;;;;;8.93;5.30;;;;;;;9.46;79.20;101795.15;1852497;77;20960;-82
2022/10/29 04:27:13;;;;;;;7.17;6.00;;;;;;;9.46;79.57;101803.00;1852567;77;21054;-83
2022/10/29 04:29:40;;;;;;;7.83;5.75;;;;;;;9.43;79.81;101802.67;1851802;77;20861;-84
2022/10/29 04:32:08;;;;;;;6.08;5.47;;;;;;;9.41;79.98;101805.80;1849720;77;21312;-84
2022/10/29 04:34:35;;;;;;;6.85;6.22;;;;;;;9.41;80.34;101804.48;1849587;77;21442;-83
2022/10/29 04:37:02;;;;;;;10.23;6.67;;;;;;;9.40;80.59;101809.77;1849728;77;20913;-84
2022/10/29 04:39:28;;;;;;;6.35;5.75;;;;;;;9.39;80.83;101808.91;1849979;77;20881;-84
2022/10/29 04:41:55;;;;;;;7.28;6.30;;;;;;;9.41;81.09;101803.17;1850100;76;21453;-85
2022/10/29 04:44:22;;;;;;;6.72;6.00;;;;;;;9.42;81.22;101810.11;1849416;77;21218;-83
2022/10/29 04:46:48;;;;;;;8.50;6.90;;;;;;;9.45;81.39;101799.97;1849434;76;20866;-84
2022/10/29 04:49:16;;;;;;;7.95;6.17;;;;;;;9.47;81.64;101799.46;1849557;77;20955;-85
2022/10/29 04:51:42;;;;;;;7.70;6.90;;;;;;;9.49;81.77;101798.52;1849554;77;21332;-83
2022/10/29 04:54:09;;;;;;;9.98;7.83;;;;;;;9.52;81.95;101792.31;1849575;76;20904;-84
2022/10/29 04:56:35;;;;;;;7.83;7.03;;;;;;;9.58;82.06;101790.75;1849764;77;21213;-82
2022/10/29 04:59:02;;;;;;;8.98;7.20;;;;;;;9.62;82.13;101791.51;1851630;77;21189;-83
2022/10/29 05:01:29;;;;;;;10.30;7.75;;;;;;;9.65;82.25;101794.00;1851957;76;20830;-84
2022/10/29 05:03:56;;;;;;;9.00;7.28;;;;;;;9.69;82.45;101787.31;1851024;77;20921;-84
2022/10/29 05:06:23;;;;;;;12.37;8.58;;;;;;;9.76;82.47;101789.24;1850855;77;20964;-84
2022/10/29 05:08:51;;;;;;;9.70;8.08;;;;;;;9.83;82.43;101789.41;1839771;77;22053;-84
2022/10/29 05:11:17;;;;;;;12.55;8.78;;;;;;;9.90;82.33;101787.41;1835017;77;20906;-84
2022/10/29 05:13:44;;;;;;;9.93;8.10;;;;;;;9.97;82.36;101781.00;1835073;76;20978;-83
2022/10/29 05:16:12;;;;;;;8.90;7.90;;;;;;;10.04;82.27;101786.86;1834963;78;20883;-84
2022/10/29 05:18:39;;;;;;;8.85;7.95;;;;;;;10.12;82.12;101784.80;1834997;76;20910;-86
2022/10/29 05:21:07;;;;;;;9.45;8.33;;;;;;;10.21;82.03;101787.06;1835109;77;21844;-83
2022/10/29 05:23:34;;;;;;;10.75;9.25;;;;;;;10.30;81.71;101789.34;1834951;77;20942;-83
2022/10/29 05:26:00;;;;;;;9.28;8.28;;;;;;;10.39;81.53;101797.77;1835023;78;20901;-82
2022/10/29 05:28:28;;;;;;;8.53;7.62;;;;;;;10.48;81.25;101791.67;1834992;78;21349;-83
2022/10/29 05:30:55;;;;;;;9.25;8.25;;;;;;;10.58;81.06;101798.27;1835242;77;20851;-83
2022/10/29 05:33:23;;;;;;;10.08;8.63;;;;;;;10.70;80.87;101795.58;1835354;77;22025;-84
2022/10/29 05:35:50;;;;;;;11.50;9.05;;;;;;;10.83;80.62;101793.73;1835227;77;21405;-84
2022/10/29 05:38:18;;;;;;;11.93;8.30;;;;;;;11.01;80.36;101806.10;1837100;77;20817;-83
2022/10/29 05:40:45;;;;;;;10.53;8.43;;;;;;;11.24;80.09;101802.47;1838312;77;20957;-84
2022/10/29 05:43:14;;;;;;;15.90;10.98;;;;;;;11.47;79.24;101793.59;1837992;77;21330;-84
2022/10/29 05:45:42;;;;;;;13.90;12.18;;;;;;;11.71;78.22;101795.55;1837910;77;21227;-83
2022/10/29 05:48:10;;;;;;;21.35;18.10;;;;;;;11.82;77.07;101781.91;1837963;77;20961;-84
2022/10/29 05:50:36;;;;;;;11.30;8.35;;;;;;;11.90;76.55;101775.03;1838096;77;20962;-87
2022/10/29 05:53:05;;;;;;;10.25;8.60;;;;;;;12.12;76.56;101776.19;1838732;77;20906;-82
2022/10/29 05:55:33;;;;;;;16.05;12.10;;;;;;;12.57;76.19;101763.02;1838704;77;20938;-83
2022/10/29 05:58:02;;;;;;;14.45;10.08;;;;;;;12.90;74.49;101770.98;1838138;77;21105;-84
2022/10/29 06:00:31;;;;;;;10.95;8.30;;;;;;;13.06;73.21;101771.88;1838320;77;20934;-84
2022/10/29 06:02:58;;;;;;;9.90;7.60;;;;;;;13.13;72.51;101776.84;1838105;77;20954;-84
2022/10/29 06:05:24;;;;;;;8.85;7.80;;;;;;;13.10;72.00;101780.48;1838518;77;20915;-84
2022/10/29 06:07:56;;;;;;;9.95;8.15;;;;;;;13.05;71.86;101774.14;1838468;77;21021;-83
2022/10/29 06:10:23;;;;;;;9.98;8.13;;;;;;;13.02;71.83;101775.59;1837643;77;21185;-83
2022/10/29 06:12:50;;;;;;;12.47;8.65;;;;;;;13.00;71.85;101773.52;1835896;77;20864;-83
2022/10/29 06:15:18;;;;;;;19.92;15.18;;;;;;;12.98;71.67;101770.13;1835322;77;20927;-85
2022/10/29 06:17:46;;;;;;;9.85;8.48;;;;;;;12.96;71.56;101773.75;1835223;77;20921;-84
2022/10/29 06:20:14;;;;;;;8.28;7.42;;;;;;;12.92;71.63;101771.76;1835481;77;20968;-84
2022/10/29 06:22:42;;;;;;;9.30;7.58;;;;;;;12.87;71.71;101767.17;1835049;77;20867;-83
2022/10/29 06:25:09;;;;;;;10.43;7.12;;;;;;;12.86;71.76;101758.91;1835367;76;21348;-84
2022/10/29 06:27:36;;;;;;;8.48;7.53;;;;;;;12.86;71.74;101763.70;1835166;77;20919;-84
2022/10/29 06:30:04;;;;;;;9.88;7.90;;;;;;;12.89;71.98;101765.31;1835083;76;20928;-83
2022/10/29 06:32:31;;;;;;;8.30;7.47;;;;;;;12.97;71.83;101774.16;1835044;77;20903;-81
2022/10/29 06:34:58;;;;;;;10.93;8.30;;;;;;;13.04;71.67;101766.31;1834992;77;21251;-84
2022/10/29 06:37:25;;;;;;;9.53;7.83;;;;;;;13.10;71.53;101772.59;1835284;77;20934;-85
2022/10/29 06:39:52;;;;;;;12.93;8.70;;;;;;;13.14;71.32;101761.41;1835149;77;20913;-85
2022/10/29 06:42:19;;;;;;;13.40;12.00;;;;;;;13.14;70.93;101759.65;1835091;77;20847;-83
2022/10/29 06:44:46;;;;;;;19.52;16.82;;;;;;;13.11;70.88;101756.31;1835317;77;20863;-85
2022/10/29 06:47:13;;;;;;;15.55;11.08;;;;;;;13.06;70.89;101762.67;1834982;77;21297;-83
2022/10/29 06:49:39;;;;;;;19.50;14.47;;;;;;;13.04;70.69;101767.16;1834942;77;20863;-84
2022/10/29 06:52:05;;;;;;;13.13;10.03;;;;;;;13.01;70.67;101765.17;1835161;77;20883;-84
2022/10/29 06:54:32;;;;;;;8.75;7.85;;;;;;;12.99;70.84;101763.08;1835355;77;20910;-85
2022/10/29 06:56:59;;;;;;;9.30;8.00;;;;;;;12.98;70.93;101761.36;1835441;76;20879;-87
2022/10/29 06:59:25;;;;;;;9.18;7.65;;;;;;;13.01;71.03;101763.85;1835199;77;21251;-86
2022/10/29 07:01:52;;;;;;;8.88;7.78;;;;;;;13.03;71.00;101773.84;1835178;76;20891;-82
2022/10/29 07:04:21;;;;;;;10.63;8.13;;;;;;;13.03;70.98;101775.16;1835088;77;20871;-85
2022/10/29 07:06:47;;;;;;;9.28;8.43;;;;;;;13.00;70.93;101780.09;1835138;77;20994;-85
2022/10/29 07:09:14;;;;;;;10.45;8.10;;;;;;;12.97;70.87;101776.31;1843594;77;20984;-85
2022/10/29 07:11:41;;;;;;;10.82;8.70;;;;;;;12.93;70.82;101777.40;1849427;77;21250;-85
2022/10/29 07:14:09;;;;;;;12.33;8.63;;;;;;;12.85;71.00;101769.91;1849778;77;20873;-84
2022/10/29 07:16:39;;;;;;;8.55;7.65;;;;;;;12.79;71.24;101775.95;1850176;77;20901;-85
2022/10/29 07:19:10;;;;;;;10.45;8.28;;;;;;;12.76;71.42;101770.81;1850202;77;20889;-86
2022/10/29 07:21:39;;;;;;;9.00;8.05;;;;;;;12.73;71.52;101769.20;1849201;77;20916;-85
2022/10/29 07:24:07;;;;;;;13.38;8.25;;;;;;;12.72;71.65;101767.98;1850168;77;21302;-86
2022/10/29 07:26:35;;;;;;;9.18;7.70;;;;;;;12.72;71.83;101771.93;1849892;77;21008;-84
2022/10/29 07:29:02;;;;;;;26.02;12.13;;;;;;;12.74;72.19;101770.92;1849809;77;20873;-85
2022/10/29 07:31:29;;;;;;;11.08;8.10;;;;;;;12.74;72.56;101770.04;1849823;77;21004;-84
2022/10/29 07:33:58;;;;;;;11.18;8.18;;;;;;;12.74;72.67;101768.28;1849948;77;20980;-84
2022/10/29 07:36:25;;;;;;;11.48;9.40;;;;;;;12.77;72.88;101769.44;1849760;77;21132;-85
2022/10/29 07:38:51;;;;;;;13.55;9.63;;;;;;;12.79;72.93;101778.58;1849517;76;20826;-86
2022/10/29 07:41:19;;;;;;;11.40;10.15;;;;;;;12.76;73.04;101778.28;1849528;77;20960;-84
2022/10/29 07:43:45;;;;;;;13.03;10.63;;;;;;;12.76;73.16;101757.22;1850600;77;20925;-84
2022/10/29 07:46:12;;;;;;;31.93;24.82;;;;;;;12.73;73.14;101738.93;1850767;77;20912;-85
2022/10/29 07:48:39;;;;;;;21.65;15.75;;;;;;;12.67;73.31;101730.02;1850011;77;21215;-82
2022/10/29 07:51:05;;;;;;;11.45;10.10;;;;;;;12.61;73.66;101732.99;1849874;77;20933;-85
2022/10/29 07:53:32;;;;;;;12.70;9.48;;;;;;;12.60;74.21;101743.95;1850754;77;20952;-85
2022/10/29 07:56:01;;;;;;;13.25;10.13;;;;;;;12.64;74.50;101744.66;1850549;77;20917;-86
2022/10/29 07:58:29;;;;;;;11.03;8.48;;;;;;;12.68;74.52;101740.95;1850085;77;20976;-85
2022/10/29 08:00:58;;;;;;;9.68;8.68;;;;;;;12.72;74.40;101755.66;1850267;77;21226;-85
2022/10/29 08:03:27;;;;;;;11.25;9.43;;;;;;;12.75;74.43;101750.70;1824528;77;20964;-84
2022/10/29 08:05:57;;;;;;;11.33;8.75;;;;;;;12.79;74.58;101750.94;1824627;77;20948;-85
2022/10/29 08:08:26;;;;;;;10.80;9.18;;;;;;;12.86;74.56;101743.95;1853772;77;20929;-84
2022/10/29 08:10:54;;;;;;;13.53;10.70;;;;;;;12.91;74.47;101750.30;1863257;76;20887;-84
2022/10/29 08:13:21;;;;;;;10.38;9.20;;;;;;;12.95;74.44;101751.00;1862707;77;21162;-87
2022/10/29 08:15:51;;;;;;;13.10;9.63;;;;;;;12.98;74.33;101753.02;1863208;77;20859;-87
2022/10/29 08:18:18;;;;;;;12.18;9.68;;;;;;;12.99;74.22;101747.28;1861820;77;21001;-84
2022/10/29 08:20:46;;;;;;;10.58;9.08;;;;;;;12.99;74.18;101742.86;1860743;77;20958;-86
2022/10/29 08:23:14;;;;;;;13.38;9.83;;;;;;;12.99;74.21;101740.22;1860655;76;20993;-84
2022/10/29 08:25:41;;;;;;;11.00;9.18;;;;;;;13.00;74.21;101734.48;1860463;76;21468;-84
2022/10/29 08:28:11;;;;;;;8.85;7.87;;;;;;;13.02;74.29;101737.42;1860437;76;20879;-85
2022/10/29 08:30:39;;;;;;;13.22;9.33;;;;;;;13.05;74.23;101737.28;1859529;77;20881;-87
2022/10/29 08:33:06;;;;;;;12.37;10.08;;;;;;;13.08;74.24;101736.73;1860055;76;20974;-86
2022/10/29 08:35:33;;;;;;;16.00;12.55;;;;;;;13.12;74.33;101736.96;1860383;77;20816;-85
2022/10/29 08:38:01;;;;;;;19.05;13.88;;;;;;;13.19;74.43;101739.66;1860296;77;21305;-85
2022/10/29 08:41:16;;;;;;;13.80;9.88;;;;;;;13.25;74.21;101736.22;1860070;77;20915;-86
2022/10/29 08:44:21;;;;;;;15.63;13.13;;;;;;;13.31;73.96;101732.42;1860346;76;20906;-85
2022/10/29 08:46:58;;;;;;;15.83;12.40;;;;;;;13.32;73.58;101734.59;1844207;77;20981;-85
2022/10/29 08:49:40;;;;;;;14.28;9.95;;;;;;;13.27;73.42;101734.36;1860031;76;20965;-86
2022/10/29 08:52:18;;;;;;;15.63;9.95;;;;;;;13.22;73.58;101728.94;1859952;77;21778;-86
2022/10/29 08:54:42;;;;;;;13.28;10.43;;;;;;;13.16;73.53;101729.26;1859501;77;20970;-88
2022/10/29 08:57:17;;;;;;;14.25;10.82;;;;;;;13.06;73.71;101725.80;1860121;77;20824;-84
2022/10/29 09:00:04;;;;;;;13.13;10.08;;;;;;;12.99;74.04;101724.90;1860233;77;20934;-85
2022/10/29 09:02:31;;;;;;;13.68;10.25;;;;;;;12.95;74.35;101724.67;1860641;77;21372;-85
2022/10/29 09:04:58;;;;;;;10.80;9.50;;;;;;;12.91;74.73;101717.38;1860426;77;21137;-86
2022/10/29 09:07:59;;;;;;;12.35;9.25;;;;;;;12.94;75.01;101710.66;1859987;76;20915;-85
2022/10/29 09:10:40;;;;;;;10.50;8.35;;;;;;;13.00;75.09;101699.78;1849168;76;21014;-86
2022/10/29 09:13:26;;;;;;;10.72;8.63;;;;;;;13.13;75.15;101690.77;1847370;77;20972;-86
2022/10/29 09:16:00;;;;;;;9.68;8.48;;;;;;;13.28;74.71;101687.81;1847772;77;26740;-86
2022/10/29 09:18:37;;;;;;;10.28;8.13;;;;;;;13.42;74.54;101676.52;1848165;77;20902;-88
2022/10/29 09:24:12;;;;;;;12.10;9.40;;;;;;;13.61;73.62;101675.05;1854391;77;22560;-86
2022/10/29 09:26:58;;;;;;;13.35;9.83;;;;;;;13.60;73.56;101677.28;1802322;78;20832;-85
2022/10/29 09:29:59;;;;;;;16.20;9.98;;;;;;;13.69;73.48;101676.77;1790128;78;21147;-86
2022/10/29 09:32:40;;;;;;;12.63;10.30;;;;;;;13.84;73.38;101678.54;1789948;80;20967;-87
2022/10/29 09:35:16;;;;;;;11.50;8.58;;;;;;;14.11;73.44;101660.75;1783329;79;20939;-89
2022/10/29 09:37:56;;;;;;;14.25;9.60;;;;;;;14.42;72.69;101658.95;1789581;79;20907;-86
2022/10/29 09:40:34;;;;;;;9.83;8.83;;;;;;;14.85;72.32;101653.29;1789950;79;21337;-87
2022/10/29 09:43:06;;;;;;;10.28;7.72;;;;;;;15.44;70.54;101659.72;1789841;80;21823;-88
2022/10/29 09:45:42;;;;;;;16.55;9.93;;;;;;;16.08;69.02;101645.44;1728495;80;20927;-85
2022/10/29 09:48:16;;;;;;;10.53;9.30;;;;;;;16.70;66.31;101628.87;1784240;80;20880;-85
2022/10/29 09:51:08;;;;;;;9.75;8.73;;;;;;;17.26;64.49;101634.27;1759482;80;20935;-84
2022/10/29 09:53:35;;;;;;;10.98;9.88;;;;;;;17.71;62.80;101635.35;1789849;79;20939;-85
2022/10/29 09:56:03;;;;;;;12.30;9.25;;;;;;;18.19;60.97;101634.00;1789993;80;21120;-87
2022/10/29 09:58:30;;;;;;;13.65;11.75;;;;;;;18.53;59.93;101639.38;1789646;80;20880;-85
2022/10/29 10:00:58;;;;;;;10.13;8.10;;;;;;;18.81;58.55;101630.14;1789718;79;20966;-85
2022/10/29 10:03:46;;;;;;;9.78;8.70;;;;;;;19.09;58.00;101622.61;1789780;79;20923;-83
2022/10/29 10:06:14;;;;;;;11.25;9.38;;;;;;;19.38;57.50;101617.59;1789816;79;21004;-86
2022/10/29 10:09:04;;;;;;;9.55;8.55;;;;;;;19.71;56.11;101606.52;1789897;80;20923;-85
2022/10/29 10:11:39;;;;;;;9.83;8.83;;;;;;;20.02;55.20;101603.96;1789944;79;20888;-86
2022/10/29 10:14:19;;;;;;;9.08;8.05;;;;;;;20.32;54.12;101591.66;1759074;80;20943;-86
2022/10/29 10:16:45;;;;;;;8.93;7.87;;;;;;;20.69;53.58;101588.85;1790120;79;20911;-85
2022/10/29 10:19:25;;;;;;;12.15;8.85;;;;;;;21.20;52.33;101587.54;1789995;79;20876;-85
2022/10/29 10:21:58;;;;;;;10.78;9.20;;;;;;;21.61;50.45;101579.82;1789859;79;21944;-85
2022/10/29 10:24:33;;;;;;;11.08;8.70;;;;;;;21.87;50.16;101580.56;1791906;80;20974;-84
2022/10/29 10:27:00;;;;;;;9.63;8.53;;;;;;;22.14;49.57;101575.33;1789814;80;20863;-86
2022/10/29 10:29:27;;;;;;;12.70;8.20;;;;;;;22.35;48.22;101579.66;1789926;79;20892;-84
2022/10/29 10:32:07;;;;;;;9.85;8.38;;;;;;;22.39;48.11;101573.51;1789969;80;20935;-88
2022/10/29 10:34:37;;;;;;;10.72;9.08;;;;;;;22.53;47.98;101583.75;1789399;80;21502;-87
2022/10/29 10:37:08;;;;;;;10.00;8.10;;;;;;;22.75;47.60;101580.69;1789180;79;21314;-85
2022/10/29 10:39:42;;;;;;;10.78;8.00;;;;;;;23.00;47.47;101578.84;1789151;79;20931;-86
2022/10/29 10:42:26;;;;;;;;;;;;;;;23.12;46.37;101587.84;1791333;80;20913;-86
2022/10/29 10:45:18;;;;;;;11.63;8.88;;;;;;;23.02;46.26;101576.35;1789474;79;20116;-86
2022/10/29 10:47:49;;;;;;;12.05;8.88;;;;;;;22.78;46.54;101569.34;1789442;80;21111;-85
2022/10/29 10:50:32;;;;;;;9.80;7.92;;;;;;;22.38;47.05;101567.83;1789376;80;20884;-85
2022/10/29 10:53:07;;;;;;;12.75;9.33;;;;;;;21.98;47.82;101562.20;1789589;79;20872;-87
2022/10/29 10:55:38;;;;;;;11.35;8.73;;;;;;;21.66;48.74;101558.87;1759548;79;21408;-86
2022/10/29 10:58:28;;;;;;;12.35;10.00;;;;;;;21.28;49.53;101557.02;1789286;80;21062;-86
2022/10/29 11:01:05;;;;;;;13.55;9.75;;;;;;;20.91;50.21;101549.14;1789250;80;21232;-86
2022/10/29 11:04:02;;;;;;;10.03;9.08;;;;;;;20.54;51.29;101544.02;1789096;79;21463;-87
2022/10/29 11:06:33;;;;;;;36.42;32.70;;;;;;;20.26;52.02;101537.11;1789327;79;20959;-86
2022/10/29 11:09:29;;;;;;;20.80;18.82;;;;;;;19.90;53.07;101531.30;1789215;80;20868;-86
2022/10/29 11:12:07;;;;;;;16.60;11.45;;;;;;;19.65;53.61;101529.81;1789491;79;20982;-87
2022/10/29 11:14:46;;;;;;;11.68;10.48;;;;;;;19.33;54.06;101531.19;1789982;80;21135;-86
2022/10/29 11:17:25;;;;;;;14.28;10.35;;;;;;;19.04;54.93;101521.95;1792072;78;20923;-86
2022/10/29 11:19:56;;;;;;;14.30;10.23;;;;;;;18.82;55.78;101518.02;1792257;79;20927;-86
2022/10/29 11:22:31;;;;;;;14.85;11.35;;;;;;;18.62;56.73;101502.32;1791359;80;20899;-86
2022/10/29 11:25:22;;;;;;;18.45;11.57;;;;;;;18.44;57.25;101509.45;1792979;80;20875;-87
2022/10/29 11:28:31;;;;;;;16.60;9.70;;;;;;;18.28;57.59;101501.50;1795966;80;21424;-87
2022/10/29 11:31:12;;;;;;;12.75;10.68;;;;;;;18.12;58.20;101505.81;1795371;80;21481;-87
2022/10/29 11:34:17;;;;;;;12.25;10.70;;;;;;;18.01;58.90;101497.38;1795616;80;20974;-84
2022/10/29 11:37:01;;;;;;;13.88;12.30;;;;;;;17.95;59.51;101496.52;1795384;79;20954;-86
2022/10/29 11:39:32;;;;;;;12.90;10.72;;;;;;;17.86;60.08;101484.80;1796678;80;20935;-83
2022/10/29 11:42:00;;;;;;;13.30;11.83;;;;;;;17.75;60.42;101481.61;1796587;79;21238;-85
2022/10/29 11:44:27;;;;;;;15.60;11.65;;;;;;;17.64;61.12;101474.13;1795567;79;20891;-87
2022/10/29 11:47:33;;;;;;;15.28;12.78;;;;;;;17.59;61.49;101477.13;1795623;79;21455;-86